Share

Wayside, TX (79094)

APRSWXNET Tulia TX US (ME0290) Elev 3485 ft | 34.54 °N, 101.77 °W | Change Station

Current weather conditions updated 41 minutes ago

Partly Cloudy
Partly Cloudy
57 °F
Feels Like 57 °F
N
2
Wind Variable Wind from South
Gusts 3.0 mph
Sunrise 7:09 AM
Sunset 8:21 PM
Moon Waning Gibbous

Tomorrow is forecast to be Warmer than today. A few thunderstorms possible.

Pressure 29.97 in
Visibility 10.0 miles
Clouds Few 10000 ft
Dew Point 52 °F
Humidity 82%
Rainfall 0.00 in
Snow Depth Not available.
UV 0 out of 16
Pollen 9.30 out of 12
Air Quality Not available.
Flu Activity Local Activity
METAR KAMA 200153Z 17006KT 10SM FEW100 13/09 A3004 RMK AO2 SLP148 T01330089

More Conditions Fewer Conditions

Pressure 29.97 in
Visibility 10.0 miles
Clouds Few 10000 ft
Dew Point 52 °F
Humidity 82%
Rainfall 0.00 in
Snow Depth Not available.
UV 0 out of 16
Pollen 9.30 out of 12
Air Quality Not available.
Flu Activity Local Activity
METAR KAMA 200153Z 17006KT 10SM FEW100 13/09 A3004 RMK AO2 SLP148 T01330089

More Conditions Fewer Conditions

10-Day Weather Forecast

Almanac

Astronomy

Apr. 19, 2014 Rise Set
Actual Time 7:09 AM CDT 8:21 PM CDT
Civil Twilight 6:43 AM CDT 8:47 PM CDT
Nautical Twilight 6:11 AM CDT 9:19 PM CDT
Astronomical Twilight 5:39 AM CDT 9:51 PM CDT
Moon 12:02 AM CDT (4/19) 10:35 AM CDT (4/19)
Length of Visible Light 14h 04m
Length of Day
13h 12m
Tomorrow will be 2m 1s longer.
Waning Gibbous, 74% of the Moon is Illuminated
Today
Waning Gibbous
Apr 22
Last Quarter
Apr 29
New
May 6
First Quarter
May 14
Full

Today's Extremes

State Highs State Lows

Community

  • Cherry Blossoms
    Cherry Blossoms
  • White-Crowned Sparrow
    White-Crowned Sparrow
  • New Day
    New Day
  • Happy Easter!
    Happy Easter!
  • poppy bloom near Mazar-e-Sharif
    poppy bloom near Mazar-e-Sharif

WunderPhotos

Upload Photos

1,703,054 photos uploaded!

WunderBlogs® & News

By Dr. Jeff Masters
Director of Meteorology, Weather Underground
By Kari Strenfel
Meteorologist, Weather Underground
By Christopher C. Burt
Weather Historian, Weather Underground
April 19, 2014
April 19, 2014
April 19, 2014

Nearby

Snow Depth

Station Depth Elevation
No new snow has been reported.

Coastal Water Temperatures

Place Temperature
No Stations Reporting

Earthquake Activity

City Distance Mag. Time & Date
No recent earthquake activity has been reported nearby.
Minimum magnitude displayed is 2.5.

Nearby Weather Stations

Station Location Temp. Dew Point Humidity Wind Precip. Elev Updated Type
WT_Meso Tulia 2NE, Tulia, TX 57 °F 51 °F 84% WSW  at  4 mph 0.00 in / hr 3478 ft 8:25 PM CDT MADIS
APRSWXNET Tulia TX , Tulia, TX 57 °F 52 °F 82% South  at  2 mph 0.00 in / hr 3485 ft 9:02 PM CDT MADIS

Show More Stations Show Fewer Stations

What do you think?

We're not finished. Please let us know what you like, what you don't like, and what you are still missing.